This is the latest recevied weather packets stored in our database for station/object VK3HAG. If no packets are shown the sender has not sent any weather packets the latest 10 day(s).
| Time | Temp. | Humidity | Pressure | Rain* | Wind** | Luminosity | Snow |
|---|---|---|---|---|---|---|---|
| 1777462204 | 12.22° C | 87% | 1026.1 hPa | 0 mm | - | - | - |
| 1777461304 | 12.22° C | 87% | 1026 hPa | 0 mm | - | - | - |
| 1777457704 | 14.44° C | 84% | 1025.7 hPa | 0 mm | - | - | - |
| 1777456805 | 15° C | 84% | 1025.8 hPa | 0 mm | - | - | - |
| 1777455005 | 15.56° C | 85% | 1025.7 hPa | 0 mm | - | - | - |
| 1777454104 | 16.11° C | 84% | 1025.7 hPa | 0 mm | - | - | - |
| 1777453204 | 16.11° C | 83% | 1025.5 hPa | 0 mm | - | - | - |
| 1777451405 | 17.22° C | 80% | 1025.2 hPa | 0 mm | - | - | - |
| 1777450504 | 17.78° C | 78% | 1025.1 hPa | 0 mm | - | - | - |
| 1777449604 | 18.33° C | 76% | 1025.1 hPa | 0 mm | - | - | - |
| 1777447805 | 20° C | 72% | 1024.9 hPa | 0 mm | - | - | - |
| 1777446904 | 20.56° C | 71% | 1024.7 hPa | 0 mm | - | - | - |
| 1777446004 | 21.67° C | 68% | 1024.7 hPa | 0 mm | - | - | - |
| 1777444204 | 22.78° C | 61% | 1024.6 hPa | 0 mm | - | - | - |
| 1777443305 | 23.33° C | 61% | 1024.6 hPa | 0 mm | - | - | - |
| 1777442404 | 23.33° C | 61% | 1024.7 hPa | 0 mm | - | - | - |
| 1777441504 | 23.33° C | 62% | 1024.7 hPa | 0 mm | - | - | - |
| 1777440605 | 22.78° C | 65% | 1024.6 hPa | 0 mm | - | - | - |
| 1777439705 | 22.78° C | 64% | 1024.7 hPa | 0 mm | - | - | - |
| 1777438805 | 23.33° C | 62% | 1024.7 hPa | 0 mm | - | - | - |
| 1777437004 | 23.89° C | 60% | 1024.8 hPa | 0 mm | - | - | - |
| 1777436104 | 23.33° C | 61% | 1024.9 hPa | 0 mm | - | - | - |
| 1777423505 | 17.78° C | 79% | 1027.5 hPa | 0 mm | - | - | - |
| 1777408205 | 10.56° C | 92% | 1026.5 hPa | 0 mm | - | - | - |
| 1777404605 | 11.11° C | 90% | 1026.2 hPa | 0 mm | - | - | - |
* Rain latest hour (hover to see other rain measurements)
** Current wind speed in m/s (hover to see current wind gust speed)